createdAt,value
2018-06-20T00:02:14.107Z,17.40
2018-06-20T00:04:43.421Z,17.90
2018-06-20T00:07:12.688Z,18.10
2018-06-20T00:09:42.077Z,15.37
2018-06-20T00:12:11.360Z,15.80
2018-06-20T00:14:40.756Z,16.23
2018-06-20T00:17:10.038Z,17.80
2018-06-20T00:19:39.312Z,16.50
2018-06-20T00:22:08.735Z,17.20
2018-06-20T00:24:38.045Z,17.40
2018-06-20T00:27:07.365Z,15.70
2018-06-20T00:29:36.632Z,14.90
2018-06-20T00:32:05.965Z,16.13
2018-06-20T00:34:35.281Z,17.50
2018-06-20T00:37:04.605Z,17.60
2018-06-20T00:39:33.997Z,18.60
2018-06-20T00:42:03.281Z,18.27
2018-06-20T00:44:32.564Z,18.20
2018-06-20T00:47:01.880Z,17.80
2018-06-20T00:49:31.223Z,18.80
2018-06-20T00:52:00.562Z,19.50
2018-06-20T00:54:29.936Z,17.83
2018-06-20T00:56:59.287Z,18.47
2018-06-20T00:59:28.585Z,19.40
2018-06-20T01:01:57.973Z,19.73
2018-06-20T01:04:27.304Z,17.63
2018-06-20T01:06:56.608Z,20.47
2018-06-20T01:09:25.981Z,18.50
2018-06-20T01:11:55.467Z,18.10
2018-06-20T01:14:24.680Z,18.77
2018-06-20T01:16:54.089Z,20.40
2018-06-20T01:19:23.397Z,19.03
2018-06-20T01:21:52.673Z,19.37
2018-06-20T01:24:21.948Z,20.17
2018-06-20T01:26:51.259Z,21.50
2018-06-20T01:29:20.524Z,20.40
2018-06-20T01:31:49.840Z,20.00
2018-06-20T01:34:19.164Z,21.00
2018-06-20T01:36:48.445Z,22.90
2018-06-20T01:39:17.724Z,21.83
2018-06-20T01:41:47.060Z,19.93
2018-06-20T01:44:16.332Z,22.73
2018-06-20T01:46:45.643Z,22.27
2018-06-20T01:49:14.968Z,21.63
2018-06-20T01:51:44.236Z,20.03
2018-06-20T01:54:13.518Z,21.03
2018-06-20T01:56:42.800Z,21.00
2018-06-20T01:59:12.092Z,22.23
2018-06-20T02:01:41.413Z,16.53
2018-06-20T02:04:10.812Z,17.73
2018-06-20T02:06:40.104Z,21.40
2018-06-20T02:09:09.371Z,20.10
2018-06-20T02:11:38.652Z,19.90
2018-06-20T02:14:07.973Z,19.00
2018-06-20T02:16:37.267Z,21.03
2018-06-20T02:19:06.616Z,19.70
2018-06-20T02:21:35.920Z,21.10
2018-06-20T02:24:05.221Z,21.70
2018-06-20T02:26:34.492Z,23.03
2018-06-20T02:29:03.841Z,20.57
2018-06-20T02:31:33.117Z,21.07
2018-06-20T02:34:02.397Z,19.27
2018-06-20T02:36:32.892Z,21.73
2018-06-20T02:39:04.722Z,19.50
2018-06-20T02:41:34.296Z,19.13
2018-06-20T02:44:03.639Z,19.20
2018-06-20T02:46:33.169Z,20.67
2018-06-20T02:49:02.636Z,19.10
2018-06-20T02:51:31.918Z,20.00
2018-06-20T02:54:01.319Z,19.53
2018-06-20T02:56:30.609Z,17.80
2018-06-20T02:58:59.957Z,16.90
2018-06-20T03:01:30.381Z,19.00
2018-06-20T03:03:59.665Z,18.23
2018-06-20T03:06:28.933Z,18.27
2018-06-20T03:09:02.096Z,16.70
2018-06-20T03:11:31.641Z,17.97
2018-06-20T03:14:00.935Z,19.63
2018-06-20T03:16:30.266Z,22.30
2018-06-20T03:18:59.580Z,20.83
2018-06-20T03:21:28.884Z,20.80
2018-06-20T03:23:58.196Z,20.03
2018-06-20T03:26:27.520Z,19.20
2018-06-20T03:28:56.901Z,19.40
2018-06-20T03:31:26.264Z,19.40
2018-06-20T03:33:56.205Z,19.33
2018-06-20T03:36:25.841Z,18.30
2018-06-20T03:38:55.156Z,17.83
2018-06-20T03:41:24.478Z,17.90
2018-06-20T03:43:53.821Z,18.30
2018-06-20T03:46:23.143Z,19.47
2018-06-20T03:48:52.512Z,20.23
2018-06-20T03:51:21.853Z,19.23
2018-06-20T03:53:51.249Z,19.17
2018-06-20T03:56:20.540Z,18.93
2018-06-20T03:58:49.914Z,20.53
2018-06-20T04:01:19.402Z,20.30
2018-06-20T04:03:48.698Z,18.87
2018-06-20T04:06:17.968Z,18.80
2018-06-20T04:08:47.286Z,18.60
2018-06-20T04:11:16.564Z,19.13
2018-06-20T04:13:45.877Z,17.93
2018-06-20T04:16:15.132Z,18.20
2018-06-20T04:18:45.037Z,17.20
2018-06-20T04:21:15.429Z,16.57
2018-06-20T04:23:44.735Z,17.50
2018-06-20T04:26:14.213Z,16.63
2018-06-20T04:28:43.488Z,16.20
2018-06-20T04:31:12.773Z,15.70
2018-06-20T04:33:42.209Z,16.30
2018-06-20T04:36:11.477Z,15.70
2018-06-20T04:38:40.756Z,15.40
2018-06-20T04:41:10.084Z,16.07
2018-06-20T04:43:39.449Z,14.77
2018-06-20T04:46:08.888Z,14.63
2018-06-20T04:48:38.233Z,13.37
2018-06-20T04:51:07.614Z,13.30
2018-06-20T04:53:37.065Z,13.20
2018-06-20T04:56:06.440Z,13.57
2018-06-20T04:58:35.756Z,13.43
2018-06-20T05:01:05.117Z,12.70
2018-06-20T05:03:34.453Z,12.80
2018-06-20T05:06:03.785Z,13.17
2018-06-20T05:08:33.136Z,13.80
2018-06-20T05:11:02.535Z,13.10
2018-06-20T05:13:31.877Z,13.13
2018-06-20T05:16:01.349Z,13.20
2018-06-20T05:18:30.679Z,13.70
2018-06-20T05:20:59.957Z,13.63
2018-06-20T05:23:29.390Z,13.67
2018-06-20T05:25:58.671Z,15.23
2018-06-20T05:28:28.034Z,14.17
2018-06-20T05:30:57.329Z,16.70
2018-06-20T05:33:26.716Z,14.70
2018-06-20T05:35:57.310Z,15.70
2018-06-20T05:38:26.753Z,14.40
2018-06-20T05:40:56.084Z,14.70
2018-06-20T05:43:25.402Z,16.40
2018-06-20T05:45:54.682Z,16.93
2018-06-20T05:48:24.121Z,17.90
2018-06-20T05:50:53.974Z,17.80
2018-06-20T05:53:24.229Z,16.90
2018-06-20T05:55:53.890Z,18.07
2018-06-20T05:58:24.076Z,16.83
2018-06-20T06:00:54.672Z,15.93
2018-06-20T06:03:25.358Z,17.10
2018-06-20T06:06:07.524Z,17.37
2018-06-20T06:08:36.963Z,16.13
2018-06-20T06:11:07.234Z,14.50
2018-06-20T06:13:37.189Z,14.50
2018-06-20T06:16:06.566Z,12.40
2018-06-20T06:18:36.444Z,12.70
2018-06-20T06:21:06.305Z,13.40
2018-06-20T06:23:35.622Z,12.70
2018-06-20T06:26:05.040Z,12.67
2018-06-20T06:28:34.376Z,13.57
2018-06-20T06:31:03.700Z,12.70
2018-06-20T06:33:33.056Z,13.20
2018-06-20T06:36:02.369Z,13.50
2018-06-20T06:38:31.676Z,11.40
2018-06-20T06:41:00.996Z,13.40
2018-06-20T06:43:30.383Z,11.70
2018-06-20T06:45:59.656Z,12.10
2018-06-20T06:48:28.924Z,11.10
2018-06-20T06:50:58.257Z,12.30
2018-06-20T06:53:27.717Z,11.07
2018-06-20T06:55:57.046Z,10.97
2018-06-20T06:58:26.294Z,10.80
2018-06-20T07:00:55.577Z,10.00
2018-06-20T07:03:24.941Z,10.43
2018-06-20T07:05:54.261Z,10.20
2018-06-20T07:08:23.545Z,9.80
2018-06-20T07:10:53.011Z,8.87
2018-06-20T07:13:22.330Z,8.70
2018-06-20T07:15:51.620Z,8.10
2018-06-20T07:18:20.916Z,6.13
2018-06-20T07:20:50.246Z,4.77
2018-06-20T07:23:19.521Z,5.10
2018-06-20T07:25:48.860Z,5.43
2018-06-20T07:28:18.196Z,5.50
2018-06-20T07:30:47.644Z,5.47
2018-06-20T07:33:17.083Z,6.37
2018-06-20T07:35:46.448Z,6.10
2018-06-20T07:38:15.709Z,7.30
2018-06-20T07:40:45.043Z,7.20
2018-06-20T07:43:14.389Z,6.70
2018-06-20T07:45:43.723Z,6.30
2018-06-20T07:48:13.023Z,5.20
2018-06-20T07:50:42.412Z,3.57
2018-06-20T07:53:11.678Z,4.23
2018-06-20T07:55:41.095Z,4.20
2018-06-20T07:58:13.268Z,4.37
2018-06-20T08:00:47.793Z,3.80
2018-06-20T08:03:22.377Z,4.57
2018-06-20T08:05:56.896Z,4.50
2018-06-20T08:08:33.253Z,4.00
2018-06-20T08:11:07.778Z,4.70
2018-06-20T08:13:42.249Z,3.93
2018-06-20T08:16:16.948Z,4.40
2018-06-20T08:18:51.450Z,3.80
2018-06-20T08:21:20.845Z,4.87
2018-06-20T08:23:50.129Z,3.60
2018-06-20T08:26:19.422Z,4.20
2018-06-20T08:28:48.701Z,3.67
2018-06-20T08:31:17.968Z,4.00
2018-06-20T08:33:47.380Z,3.57
2018-06-20T08:36:16.671Z,3.57
2018-06-20T08:38:45.949Z,3.20
2018-06-20T08:41:15.365Z,3.90
2018-06-20T08:43:44.692Z,3.30
2018-06-20T08:46:14.457Z,3.60
2018-06-20T08:48:43.742Z,3.57
2018-06-20T08:51:13.011Z,3.80
2018-06-20T08:53:42.345Z,3.50
2018-06-20T08:56:11.643Z,3.83
2018-06-20T08:58:40.912Z,3.50
2018-06-20T09:01:10.176Z,3.23
2018-06-20T09:03:39.456Z,3.47
2018-06-20T09:06:14.691Z,3.43
2018-06-20T09:08:49.132Z,3.60
2018-06-20T09:11:23.696Z,3.87
2018-06-20T09:13:58.216Z,4.40
2018-06-20T09:16:32.705Z,4.23
2018-06-20T09:19:07.172Z,4.10
2018-06-20T09:21:36.544Z,4.50
2018-06-20T09:24:05.930Z,3.67
2018-06-20T09:26:35.186Z,3.93
2018-06-20T09:29:04.462Z,3.20
2018-06-20T09:31:34.090Z,2.73
2018-06-20T09:34:03.457Z,2.90
2018-06-20T09:36:32.780Z,2.43
2018-06-20T09:39:02.100Z,2.20
2018-06-20T09:41:31.371Z,2.30
2018-06-20T09:44:00.680Z,2.30
2018-06-20T09:46:29.988Z,2.30
2018-06-20T09:48:59.311Z,2.00
2018-06-20T09:51:28.612Z,2.33
2018-06-20T09:53:57.937Z,2.10
2018-06-20T09:56:27.222Z,2.20
2018-06-20T09:58:59.697Z,2.30
2018-06-20T10:01:34.235Z,2.60
2018-06-20T10:04:08.796Z,2.00
2018-06-20T10:06:43.414Z,2.20
2018-06-20T10:09:17.804Z,2.30
2018-06-20T10:11:52.432Z,1.80
2018-06-20T10:14:21.714Z,2.10
2018-06-20T10:16:51.943Z,2.23
2018-06-20T10:19:21.284Z,1.80
2018-06-20T10:21:50.600Z,1.90
2018-06-20T10:24:19.961Z,1.70
2018-06-20T10:26:49.239Z,2.10
2018-06-20T10:29:18.524Z,1.63
2018-06-20T10:31:47.812Z,1.50
2018-06-20T10:34:17.173Z,1.63
2018-06-20T10:36:46.712Z,1.70
2018-06-20T10:39:15.976Z,2.00
2018-06-20T10:41:45.265Z,1.80
2018-06-20T10:44:15.781Z,2.20
2018-06-20T10:46:50.428Z,1.60
2018-06-20T10:49:20.122Z,2.00
2018-06-20T10:51:49.391Z,1.90
2018-06-20T10:54:18.882Z,1.47
2018-06-20T10:56:53.402Z,1.87
2018-06-20T10:59:27.940Z,2.43
2018-06-20T11:02:02.536Z,2.10
2018-06-20T11:04:38.680Z,1.80
2018-06-20T11:07:13.275Z,1.80
2018-06-20T11:09:48.057Z,1.83
2018-06-20T11:12:23.805Z,2.00
2018-06-20T11:14:53.316Z,2.07
2018-06-20T11:17:23.463Z,2.20
2018-06-20T11:19:53.402Z,2.30
2018-06-20T11:22:22.725Z,2.60
2018-06-20T11:24:52.116Z,2.30
2018-06-20T11:27:21.402Z,2.50
2018-06-20T11:29:50.662Z,1.87
2018-06-20T11:32:19.925Z,2.30
2018-06-20T11:34:49.216Z,1.80
2018-06-20T11:37:18.548Z,2.27
2018-06-20T11:39:47.825Z,2.40
2018-06-20T11:42:17.098Z,1.90
2018-06-20T11:44:46.352Z,2.30
2018-06-20T11:47:20.836Z,2.30
2018-06-20T11:49:50.156Z,2.33
2018-06-20T11:52:24.696Z,2.50
2018-06-20T11:54:58.192Z,2.20
2018-06-20T11:57:27.516Z,2.67
2018-06-20T12:00:02.004Z,1.93
2018-06-20T12:02:36.613Z,2.30
2018-06-20T12:05:11.106Z,2.00
2018-06-20T12:07:45.672Z,2.23
2018-06-20T12:10:21.149Z,2.10
2018-06-20T12:12:56.596Z,1.87
2018-06-20T12:15:31.089Z,2.13
2018-06-20T12:18:06.271Z,2.17
2018-06-20T12:20:41.812Z,1.87
2018-06-20T12:23:16.509Z,2.13
2018-06-20T12:25:51.149Z,2.10
2018-06-20T12:28:25.714Z,1.80
2018-06-20T12:31:01.192Z,1.93
2018-06-20T12:33:35.733Z,2.23
2018-06-20T12:36:10.455Z,1.90
2018-06-20T12:38:52.408Z,1.73
2018-06-20T12:41:27.708Z,2.20
2018-06-20T12:46:08.252Z,2.20
2018-06-20T12:48:37.560Z,1.87
2018-06-20T12:51:06.867Z,2.20
2018-06-20T12:53:36.249Z,2.00
2018-06-20T12:56:05.712Z,2.17
2018-06-20T12:58:35.010Z,2.00
2018-06-20T13:01:04.288Z,2.07
2018-06-20T13:03:33.603Z,2.20
2018-06-20T13:06:02.967Z,2.73
2018-06-20T13:08:32.277Z,2.40
2018-06-20T13:11:01.574Z,1.60
2018-06-20T13:13:30.973Z,2.30
2018-06-20T13:16:00.272Z,2.27
2018-06-20T13:18:30.154Z,1.60
2018-06-20T13:20:59.493Z,2.30
2018-06-20T13:23:28.761Z,1.80
2018-06-20T13:25:58.062Z,2.10
2018-06-20T13:28:27.349Z,2.13
2018-06-20T13:31:01.940Z,1.93
2018-06-20T13:33:36.486Z,2.20
2018-06-20T13:36:11.099Z,2.07
2018-06-20T13:38:45.660Z,2.00
2018-06-20T13:41:20.249Z,2.20
2018-06-20T13:43:54.716Z,1.80
2018-06-20T13:46:29.284Z,1.80
2018-06-20T13:48:58.614Z,2.20
2018-06-20T13:51:27.998Z,2.00
2018-06-20T13:53:57.293Z,2.43
2018-06-20T13:56:26.572Z,2.00
2018-06-20T13:58:55.881Z,2.43
2018-06-20T14:01:25.152Z,1.90
2018-06-20T14:03:54.540Z,2.23
2018-06-20T14:06:23.857Z,2.30
2018-06-20T14:08:53.137Z,2.20
2018-06-20T14:11:22.715Z,1.93
2018-06-20T14:13:52.092Z,2.40
2018-06-20T14:16:21.470Z,1.97
2018-06-20T14:18:50.781Z,2.17
2018-06-20T14:21:25.390Z,2.40
2018-06-20T14:23:54.665Z,2.57
2018-06-20T14:26:24.053Z,2.20
2018-06-20T14:28:53.337Z,2.10
2018-06-20T14:31:27.868Z,2.17
2018-06-20T14:34:02.439Z,2.27
2018-06-20T14:36:37.061Z,2.10
2018-06-20T14:39:14.252Z,2.40
2018-06-20T14:41:48.876Z,2.13
2018-06-20T14:44:18.185Z,2.20
2018-06-20T14:46:47.548Z,2.20
2018-06-20T14:49:16.911Z,2.37
2018-06-20T14:51:46.192Z,2.07
2018-06-20T14:54:15.504Z,2.30
2018-06-20T14:56:45.314Z,2.07
2018-06-20T14:59:15.421Z,2.10
2018-06-20T15:01:44.761Z,2.20
2018-06-20T15:04:20.690Z,2.27
2018-06-20T15:06:50.033Z,2.40
2018-06-20T15:09:19.302Z,2.07
2018-06-20T15:11:48.689Z,2.60
2018-06-20T15:14:18.057Z,1.97
2018-06-20T15:16:52.605Z,2.33
2018-06-20T15:19:21.932Z,2.30
2018-06-20T15:21:51.224Z,2.53
2018-06-20T15:24:20.590Z,2.43
2018-06-20T15:26:55.081Z,2.33
2018-06-20T15:29:29.623Z,2.57
2018-06-20T15:32:04.189Z,2.27
2018-06-20T15:34:38.720Z,2.43
2018-06-20T15:37:13.293Z,2.40
2018-06-20T15:39:42.690Z,2.80
2018-06-20T15:42:12.160Z,2.93
2018-06-20T15:44:41.509Z,2.13
2018-06-20T15:47:10.837Z,2.50
2018-06-20T15:49:40.206Z,2.70
2018-06-20T15:52:09.518Z,2.53
2018-06-20T15:54:38.780Z,2.20
2018-06-20T15:57:08.285Z,2.50
2018-06-20T15:59:37.719Z,2.20
2018-06-20T16:02:08.083Z,2.63
2018-06-20T16:04:37.632Z,2.80
2018-06-20T16:07:06.940Z,2.70
2018-06-20T16:09:41.401Z,2.70
2018-06-20T16:12:10.672Z,2.27
2018-06-20T16:14:40.049Z,2.93
2018-06-20T16:17:09.329Z,2.67
2018-06-20T16:19:44.013Z,2.50
2018-06-20T16:22:19.613Z,2.90
2018-06-20T16:24:54.126Z,2.70
2018-06-20T16:27:28.604Z,2.50
2018-06-20T16:30:03.290Z,2.47
2018-06-20T16:32:32.549Z,2.83
2018-06-20T16:35:02.280Z,2.80
2018-06-20T16:37:31.606Z,2.80
2018-06-20T16:40:00.966Z,2.20
2018-06-20T16:42:30.289Z,2.90
2018-06-20T16:44:59.717Z,2.80
2018-06-20T16:47:28.996Z,2.80
2018-06-20T16:49:58.267Z,2.57
2018-06-20T16:52:27.539Z,2.83
2018-06-20T16:54:56.944Z,3.10
2018-06-20T16:57:26.382Z,2.40
2018-06-20T16:59:55.705Z,2.70
2018-06-20T17:02:30.340Z,2.43
2018-06-20T17:04:59.765Z,2.70
2018-06-20T17:07:29.214Z,2.93
2018-06-20T17:09:58.504Z,2.90
2018-06-20T17:12:33.153Z,2.67
2018-06-20T17:15:07.593Z,2.60
2018-06-20T17:17:42.067Z,2.83
2018-06-20T17:22:19.512Z,3.10
2018-06-20T17:24:54.011Z,3.30
2018-06-20T17:27:23.308Z,2.70
2018-06-20T17:29:52.585Z,2.80
2018-06-20T17:32:21.932Z,2.53
2018-06-20T17:34:51.229Z,2.70
2018-06-20T17:37:20.501Z,2.80
2018-06-20T17:39:49.891Z,3.00
2018-06-20T17:42:19.224Z,2.57
2018-06-20T17:44:48.603Z,3.07
2018-06-20T17:47:17.957Z,2.90
2018-06-20T17:49:47.339Z,3.10
2018-06-20T17:52:16.650Z,3.20
2018-06-20T17:54:45.950Z,2.60
2018-06-20T17:57:15.348Z,3.10
2018-06-20T17:59:44.628Z,3.07
2018-06-20T18:02:13.908Z,3.50
2018-06-20T18:04:48.461Z,3.43
2018-06-20T18:09:28.067Z,3.33
2018-06-20T18:12:02.552Z,3.40
2018-06-20T18:14:37.041Z,3.20
2018-06-20T18:17:06.381Z,3.73
2018-06-20T18:19:35.746Z,3.00
2018-06-20T18:22:05.232Z,3.33
2018-06-20T18:24:34.566Z,3.33
2018-06-20T18:27:03.893Z,4.60
2018-06-20T18:29:33.784Z,3.17
2018-06-20T18:34:34.498Z,3.40
2018-06-20T18:37:03.941Z,3.67
2018-06-20T18:39:39.124Z,3.50
2018-06-20T18:42:08.460Z,4.20
2018-06-20T18:44:38.014Z,3.90
2018-06-20T18:47:07.493Z,3.97
2018-06-20T18:49:37.384Z,3.50
2018-06-20T18:52:07.090Z,4.13
2018-06-20T18:54:36.711Z,4.00
2018-06-20T18:57:10.589Z,4.30
2018-06-20T18:59:45.533Z,4.30
2018-06-20T19:02:20.971Z,3.90
2018-06-20T19:06:56.865Z,3.90
2018-06-20T19:09:26.335Z,3.70
2018-06-20T19:11:56.189Z,4.33
2018-06-20T19:14:27.407Z,4.70
2018-06-20T19:16:57.028Z,4.40
2018-06-20T19:19:26.405Z,4.60
2018-06-20T19:21:55.772Z,4.00
2018-06-20T19:24:25.126Z,4.50
2018-06-20T19:26:54.433Z,4.33
2018-06-20T19:29:23.792Z,4.13
2018-06-20T19:35:03.389Z,4.80
2018-06-20T19:37:32.768Z,4.70
2018-06-20T19:40:02.079Z,4.40
2018-06-20T19:42:31.530Z,4.23
2018-06-20T19:45:00.942Z,5.30
2018-06-20T19:47:30.741Z,5.00
2018-06-20T19:50:00.186Z,4.23
2018-06-20T19:52:29.667Z,4.73
2018-06-20T19:54:59.064Z,5.07
2018-06-20T19:57:28.858Z,4.53
2018-06-20T19:59:58.184Z,4.87
2018-06-20T20:02:27.550Z,4.57
2018-06-20T20:04:57.186Z,5.20
2018-06-20T20:07:26.980Z,4.97
2018-06-20T20:09:56.723Z,5.67
2018-06-20T20:12:26.276Z,5.10
2018-06-20T20:14:55.767Z,4.93
2018-06-20T20:17:25.397Z,4.43
2018-06-20T20:19:54.734Z,5.70
2018-06-20T20:22:24.329Z,4.80
2018-06-20T20:24:53.911Z,5.10
2018-06-20T20:27:23.429Z,4.73
2018-06-20T20:29:55.569Z,4.90
2018-06-20T20:32:30.342Z,4.73
2018-06-20T20:35:00.440Z,5.40
2018-06-20T20:37:31.177Z,5.20
2018-06-20T20:40:00.732Z,4.73
2018-06-20T20:42:30.395Z,5.43
2018-06-20T20:44:59.949Z,5.40
2018-06-20T20:47:29.316Z,4.70
2018-06-20T20:49:58.666Z,5.63
2018-06-20T20:52:27.966Z,5.00
2018-06-20T20:54:57.429Z,4.83
2018-06-20T20:57:26.869Z,5.00
2018-06-20T20:59:56.225Z,5.20
2018-06-20T21:02:25.500Z,4.67
2018-06-20T21:04:56.525Z,4.40
2018-06-20T21:07:26.629Z,4.90
2018-06-20T21:09:55.985Z,5.17
2018-06-20T21:12:25.305Z,5.33
2018-06-20T21:14:54.613Z,5.20
2018-06-20T21:17:24.110Z,5.90
2018-06-20T21:19:53.727Z,4.87
2018-06-20T21:22:23.096Z,4.90
2018-06-20T21:24:52.473Z,5.53
2018-06-20T21:27:21.773Z,4.90
2018-06-20T21:29:51.080Z,5.20
2018-06-20T21:32:20.389Z,5.53
2018-06-20T21:34:49.752Z,5.10
2018-06-20T21:37:19.042Z,4.33
2018-06-20T21:39:48.371Z,4.80
2018-06-20T21:42:17.717Z,6.50
2018-06-20T21:44:47.096Z,4.90
2018-06-20T21:47:16.382Z,4.40
2018-06-20T21:49:45.645Z,5.07
2018-06-20T21:52:15.015Z,5.47
2018-06-20T21:54:44.297Z,6.00
2018-06-20T21:57:13.670Z,4.93
2018-06-20T21:59:43.034Z,5.10
2018-06-20T22:02:12.341Z,5.20
2018-06-20T22:04:41.642Z,5.40
2018-06-20T22:07:10.918Z,5.30
2018-06-20T22:09:40.377Z,4.90
2018-06-20T22:12:09.709Z,5.00
2018-06-20T22:14:39.069Z,4.50
2018-06-20T22:17:08.438Z,6.20
2018-06-20T22:19:37.980Z,5.03
2018-06-20T22:22:07.982Z,5.53
2018-06-20T22:24:37.316Z,4.97
2018-06-20T22:27:06.616Z,5.07
2018-06-20T22:29:35.943Z,5.53
2018-06-20T22:32:05.267Z,5.00
2018-06-20T22:34:34.627Z,5.83
2018-06-20T22:37:04.005Z,5.73
2018-06-20T22:39:33.317Z,5.00
2018-06-20T22:42:02.648Z,5.40
2018-06-20T22:44:31.925Z,5.63
2018-06-20T22:47:01.257Z,5.00
2018-06-20T22:49:30.585Z,4.67
2018-06-20T22:51:59.990Z,5.10
2018-06-20T22:54:29.284Z,5.97
2018-06-20T22:56:58.636Z,5.50
2018-06-20T22:59:27.918Z,5.33
2018-06-20T23:01:57.203Z,5.80
2018-06-20T23:04:26.510Z,6.00
2018-06-20T23:06:55.814Z,5.00
2018-06-20T23:09:25.222Z,5.10
2018-06-20T23:11:54.497Z,4.80
2018-06-20T23:14:23.805Z,4.77
2018-06-20T23:16:53.094Z,5.13
2018-06-20T23:19:22.427Z,5.30
2018-06-20T23:21:51.709Z,5.63
2018-06-20T23:24:21.015Z,5.07
2018-06-20T23:26:50.386Z,5.60
2018-06-20T23:29:19.664Z,5.80
2018-06-20T23:31:48.973Z,5.03
2018-06-20T23:34:18.258Z,5.80
2018-06-20T23:36:47.537Z,5.77
2018-06-20T23:39:16.865Z,6.00
2018-06-20T23:41:46.148Z,5.70
2018-06-20T23:44:15.426Z,5.23
2018-06-20T23:46:44.773Z,5.37
2018-06-20T23:49:14.098Z,5.17
2018-06-20T23:51:43.365Z,5.43
2018-06-20T23:54:12.700Z,5.53
2018-06-20T23:56:42.054Z,5.10
2018-06-20T23:59:11.462Z,5.10
